Wetterdaten: aktuell Samstag, 08.05.2021 19:00
Datum Zeit Temp. Nord Temp. Sd Luftfeuchte Luftdruck Regen Wind Richtung Richtung Sonnenschein Helligkeit Taupunkt Windchill
08.05.2021 19:00 16,9 C 16,7 C 55 % 1010,0 hPa 0,0 l/m 12,3 km/h (3 Bft) S-SO22.5 165 45 min 23,4 klux 7,6 C 14,1 C
08.05.2021 18:00 16,4 C 16,0 C 55 % 1011,3 hPa 0,0 l/m 12,1 km/h (2 Bft) S-SW45 200 0 min 34,2 klux 7,0 C 13,4 C
08.05.2021 16:57 17,0 C 17,0 C 49 % 1011,0 hPa 0,0 l/m 18,4 km/h (3 Bft) S-SW67.5 210 9 min 21,2 klux 6,2 C 12,7 C
08.05.2021 15:57 16,4 C 16,5 C 44 % 1012,3 hPa 0,0 l/m 20,0 km/h (4 Bft) S-SW45 195 21 min 49,4 klux 4,2 C 11,7 C
08.05.2021 14:57 16,0 C 16,4 C 39 % 1013,4 hPa 0,0 l/m 20,5 km/h (4 Bft) SW67.5 220 9 min 56,6 klux 2,4 C 11,4 C
08.05.2021 13:57 15,8 C 17,0 C 39 % 1013,2 hPa 0,0 l/m 20,5 km/h (4 Bft) SW45 220 39 min 61,2 klux 2,9 C 12,2 C
08.05.2021 12:57 14,4 C 15,7 C 42 % 1013,6 hPa 0,0 l/m 24,3 km/h (4 Bft) SW45 215 54 min 105 klux 2,8 C 9,7 C
08.05.2021 11:57 12,6 C 14,1 C 54 % 1015,2 hPa 0,0 l/m 17,9 km/h (3 Bft) S22.5 185 57 min 80,5 klux 4,9 C 9,2 C
08.05.2021 10:57 11,1 C 12,3 C 59 % 1015,7 hPa 0,0 l/m 12,5 km/h (3 Bft) S45 180 54 min 74,2 klux 4,5 C 8,9 C
08.05.2021 09:57 9,6 C 9,2 C 74 % 1016,6 hPa 0,0 l/m 9,0 km/h (2 Bft) O-NO22.5 70 57 min 52,5 klux 4,8 C 7,3 C
08.05.2021 08:57 10,4 C 6,3 C 81 % 1017,5 hPa 0,0 l/m 5,2 km/h (1 Bft) O 80 39 min 26,1 klux 3,3 C 6,3 C
08.05.2021 07:57 9,5 C 2,9 C 90 % 1018,6 hPa 0,0 l/m 0,0 km/h (0 Bft) SW 230 60 min 36,4 klux 1,4 C 2,9 C
08.05.2021 06:57 0,4 C -0,3 C 91 % 1019,6 hPa 0,0 l/m 6,6 km/h (2 Bft) W-SW22.5 250 27 min 16,4 klux -1,6 C -0,5 C
08.05.2021 05:57 0,3 C -0,3 C 90 % 1019,6 hPa 0,0 l/m 8,0 km/h (2 Bft) W-SW22.5 255 0 min 663 lux -1,7 C -2,0 C
08.05.2021 04:57 0,7 C 0,3 C 88 % 1020,5 hPa 0,0 l/m 11,5 km/h (2 Bft) W22.5 260 0 min 0 lux -1,4 C -4,3 C
08.05.2021 03:57 0,7 C 0,2 C 88 % 1020,6 hPa 0,0 l/m 10,2 km/h (2 Bft) W-SW22.5 255 0 min 0 lux -1,5 C -3,4 C
08.05.2021 02:57 1,0 C 0,5 C 86 % 1020,5 hPa 0,0 l/m 10,3 km/h (2 Bft) W-SW22.5 255 0 min 0 lux -1,6 C -3,1 C
08.05.2021 01:57 1,6 C 0,9 C 84 % 1020,3 hPa 0,0 l/m 9,2 km/h (2 Bft) W-SW22.5 250 0 min 0 lux -1,5 C -1,8 C
08.05.2021 00:57 2,3 C 1,5 C 83 % 1021,2 hPa 0,0 l/m 9,0 km/h (2 Bft) W22.5 260 0 min 0 lux -1,1 C -1,0 C
07.05.2021 23:57 3,1 C 2,2 C 82 % 1019,9 hPa 0,0 l/m 11,1 km/h (2 Bft) W-SW22.5 240 0 min 0 lux -0,5 C -1,8 C
07.05.2021 22:57 4,2 C 3,2 C 77 % 1019,6 hPa 0,0 l/m 7,2 km/h (2 Bft) W22.5 260 0 min 0 lux -0,4 C 2,4 C
07.05.2021 21:57 5,9 C 5,1 C 72 % 1019,0 hPa 0,0 l/m 5,9 km/h (2 Bft) W-SW 250 0 min 0 lux 0,5 C 5,1 C
07.05.2021 20:59 7,5 C 6,9 C 65 % 1018,4 hPa 0,0 l/m 3,6 km/h (1 Bft) W-SW 245 12 min 162 lux 0,8 C 6,9 C
07.05.2021 20:02 9,1 C 9,6 C 56 % 1016,5 hPa 0,0 l/m 13,1 km/h (3 Bft) W22.5 265 0 min 3,89 klux 1,3 C 5,5 C
_ Min-Zeit 06:21 06:00 14:09 18:51 - 20:20 - - - - 05:45 04:54
Minimum _ 0,2 C -0,4 C 38 % 1010,0 hPa - 0,0 km/h (0 Bft) - - - - -1,9 C -5,0 C
_ Max-Zeit 16:51 16:39 07:03 01:51 20:02 12:45 - - 20:08 12:51 18:51 17:30
Maximum _ 17,1 C 17,2 C 92 % 1021,4 hPa 0,0 l/m 29,2 km/h
SW (5 Bft)
- - 6 min 111 klux 8,0 C 15,3 C
Durchschnitt _ 8,3 C 7,7 C 69 % 1017,1 hPa #0,0 l/m 11,0 km/h (2 Bft) W-SW - #7:51 h 27,7 klux 1,7 C 5,0 C